createdAt,value
2018-09-06T00:02:24.735Z,41.61
2018-09-06T00:04:51.442Z,41.71
2018-09-06T00:07:18.055Z,41.67
2018-09-06T00:09:44.752Z,41.70
2018-09-06T00:12:11.429Z,41.72
2018-09-06T00:14:39.493Z,41.86
2018-09-06T00:17:04.691Z,41.81
2018-09-06T00:19:31.649Z,41.85
2018-09-06T00:21:58.346Z,41.86
2018-09-06T00:24:26.076Z,41.83
2018-09-06T00:26:51.744Z,41.85
2018-09-06T00:29:19.698Z,41.91
2018-09-06T00:31:45.113Z,41.82
2018-09-06T00:34:11.818Z,41.91
2018-09-06T00:36:38.430Z,41.99
2018-09-06T00:39:05.119Z,41.90
2018-09-06T00:41:31.754Z,42.01
2018-09-06T00:43:58.495Z,41.96
2018-09-06T00:46:25.285Z,41.88
2018-09-06T00:48:52.040Z,42.00
2018-09-06T00:51:18.735Z,42.02
2018-09-06T00:53:45.386Z,41.82
2018-09-06T00:56:12.062Z,42.03
2018-09-06T00:58:41.321Z,42.00
2018-09-06T01:01:08.061Z,42.05
2018-09-06T01:03:34.705Z,42.08
2018-09-06T01:06:01.342Z,42.19
2018-09-06T01:08:28.020Z,42.03
2018-09-06T01:10:54.655Z,42.09
2018-09-06T01:13:21.366Z,42.12
2018-09-06T01:15:47.957Z,42.13
2018-09-06T01:18:14.670Z,42.19
2018-09-06T01:20:41.362Z,42.16
2018-09-06T01:23:07.992Z,42.13
2018-09-06T01:25:34.630Z,42.29
2018-09-06T01:28:01.334Z,42.36
2018-09-06T01:30:29.252Z,42.34
2018-09-06T01:32:54.702Z,42.29
2018-09-06T01:35:22.536Z,42.21
2018-09-06T01:37:47.979Z,42.24
2018-09-06T01:40:14.583Z,42.18
2018-09-06T01:42:41.265Z,42.22
2018-09-06T01:45:07.920Z,42.21
2018-09-06T01:47:34.554Z,42.23
2018-09-06T01:50:01.202Z,42.22
2018-09-06T01:52:27.899Z,42.26
2018-09-06T01:54:54.671Z,42.33
2018-09-06T01:57:21.304Z,42.40
2018-09-06T01:59:49.281Z,42.29
2018-09-06T02:02:17.613Z,42.32
2018-09-06T02:04:44.302Z,42.35
2018-09-06T02:07:10.943Z,42.24
2018-09-06T02:09:37.700Z,42.33
2018-09-06T02:12:04.383Z,42.35
2018-09-06T02:14:31.015Z,42.41
2018-09-06T02:16:59.702Z,42.38
2018-09-06T02:19:28.898Z,42.35
2018-09-06T02:21:50.991Z,42.51
2018-09-06T02:24:17.661Z,42.50
2018-09-06T02:26:44.278Z,42.33
2018-09-06T02:29:10.915Z,42.56
2018-09-06T02:31:37.591Z,42.43
2018-09-06T02:34:04.250Z,42.48
2018-09-06T02:36:30.903Z,42.43
2018-09-06T02:38:57.552Z,42.36
2018-09-06T02:41:24.345Z,42.57
2018-09-06T02:43:50.962Z,42.46
2018-09-06T02:46:17.680Z,42.52
2018-09-06T02:48:44.320Z,42.58
2018-09-06T02:51:11.027Z,42.61
2018-09-06T02:53:37.685Z,42.56
2018-09-06T02:56:04.333Z,42.57
2018-09-06T02:58:30.983Z,42.67
2018-09-06T03:00:57.678Z,42.68
2018-09-06T03:03:24.475Z,42.67
2018-09-06T03:05:51.343Z,42.57
2018-09-06T03:08:18.024Z,42.65
2018-09-06T03:10:44.709Z,42.73
2018-09-06T03:13:11.434Z,42.74
2018-09-06T03:15:38.080Z,42.73
2018-09-06T03:18:04.720Z,42.77
2018-09-06T03:20:31.369Z,42.79
2018-09-06T03:22:58.006Z,42.82
2018-09-06T03:25:27.660Z,42.73
2018-09-06T03:27:54.324Z,42.79
2018-09-06T03:30:25.262Z,42.73
2018-09-06T03:32:50.280Z,42.78
2018-09-06T03:35:16.997Z,42.88
2018-09-06T03:37:43.689Z,42.85
2018-09-06T03:40:10.361Z,42.95
2018-09-06T03:42:40.045Z,42.81
2018-09-06T03:45:06.741Z,42.92
2018-09-06T03:47:33.438Z,42.97
2018-09-06T03:50:00.177Z,42.99
2018-09-06T03:52:26.852Z,43.02
2018-09-06T03:54:55.534Z,43.09
2018-09-06T03:57:22.286Z,43.03
2018-09-06T03:59:48.918Z,42.93
2018-09-06T04:02:15.590Z,43.00
2018-09-06T04:04:43.728Z,42.92
2018-09-06T04:07:08.865Z,42.94
2018-09-06T04:09:35.547Z,43.09
2018-09-06T04:12:02.180Z,42.99
2018-09-06T04:14:28.852Z,43.05
2018-09-06T04:16:55.534Z,43.12
2018-09-06T04:19:22.170Z,43.13
2018-09-06T04:21:48.817Z,43.06
2018-09-06T04:24:15.537Z,43.18
2018-09-06T04:26:42.139Z,43.13
2018-09-06T04:29:08.773Z,43.09
2018-09-06T04:31:35.472Z,43.18
2018-09-06T04:34:02.113Z,43.12
2018-09-06T04:36:28.746Z,43.26
2018-09-06T04:38:55.385Z,43.13
2018-09-06T04:41:22.042Z,42.88
2018-09-06T04:43:48.717Z,42.75
2018-09-06T04:46:16.652Z,42.87
2018-09-06T04:48:44.882Z,42.77
2018-09-06T04:51:11.559Z,42.62
2018-09-06T04:53:38.201Z,42.33
2018-09-06T04:56:04.926Z,42.37
2018-09-06T04:58:31.697Z,42.25
2018-09-06T05:00:58.233Z,41.94
2018-09-06T05:03:24.838Z,41.77
2018-09-06T05:05:51.480Z,41.76
2018-09-06T05:08:18.125Z,41.67
2018-09-06T05:10:44.763Z,41.60
2018-09-06T05:13:11.424Z,41.43
2018-09-06T05:15:38.099Z,41.37
2018-09-06T05:18:04.712Z,41.19
2018-09-06T05:20:31.394Z,41.21
2018-09-06T05:22:58.034Z,41.09
2018-09-06T05:25:25.327Z,40.92
2018-09-06T05:27:52.001Z,40.83
2018-09-06T05:30:18.638Z,40.64
2018-09-06T05:32:45.277Z,40.87
2018-09-06T05:35:11.923Z,40.76
2018-09-06T05:37:39.940Z,40.73
2018-09-06T05:40:05.215Z,40.62
2018-09-06T05:42:33.970Z,40.40
2018-09-06T05:44:58.543Z,40.36
2018-09-06T05:47:26.668Z,40.40
2018-09-06T05:49:51.968Z,40.29
2018-09-06T05:52:18.612Z,40.32
2018-09-06T05:54:45.301Z,40.17
2018-09-06T05:57:12.015Z,40.07
2018-09-06T05:59:38.698Z,40.06
2018-09-06T06:02:05.266Z,40.07
2018-09-06T06:04:31.952Z,40.08
2018-09-06T06:06:58.604Z,40.34
2018-09-06T06:09:26.507Z,39.85
2018-09-06T06:11:51.928Z,40.91
2018-09-06T06:14:18.536Z,40.99
2018-09-06T06:16:48.020Z,40.98
2018-09-06T06:19:16.903Z,41.00
2018-09-06T06:21:41.404Z,41.04
2018-09-06T06:24:08.158Z,40.87
2018-09-06T06:26:34.806Z,40.95
2018-09-06T06:29:01.454Z,40.81
2018-09-06T06:31:28.182Z,40.59
2018-09-06T06:33:54.917Z,40.47
2018-09-06T06:36:21.542Z,40.40
2018-09-06T06:38:48.269Z,40.29
2018-09-06T06:41:16.143Z,40.45
2018-09-06T06:43:42.951Z,40.24
2018-09-06T06:46:08.192Z,40.14
2018-09-06T06:48:34.832Z,40.05
2018-09-06T06:51:01.491Z,40.12
2018-09-06T06:53:28.137Z,40.30
2018-09-06T06:55:54.877Z,40.30
2018-09-06T06:58:21.523Z,40.31
2018-09-06T07:00:48.206Z,40.16
2018-09-06T07:03:14.881Z,40.01
2018-09-06T07:05:41.552Z,39.88
2018-09-06T07:08:08.189Z,39.95
2018-09-06T07:10:34.898Z,40.00
2018-09-06T07:13:01.635Z,40.05
2018-09-06T07:15:28.276Z,40.02
2018-09-06T07:17:54.922Z,39.75
2018-09-06T07:20:21.602Z,39.99
2018-09-06T07:22:48.217Z,40.59
2018-09-06T07:25:14.858Z,40.61
2018-09-06T07:27:41.564Z,40.60
2018-09-06T07:30:08.201Z,40.54
2018-09-06T07:32:34.839Z,40.47
2018-09-06T07:35:01.496Z,40.48
2018-09-06T07:37:28.133Z,40.54
2018-09-06T07:39:54.817Z,40.53
2018-09-06T07:42:21.467Z,40.47
2018-09-06T07:44:48.115Z,40.08
2018-09-06T07:47:14.751Z,40.10
2018-09-06T07:49:41.504Z,40.33
2018-09-06T07:52:08.209Z,40.21
2018-09-06T07:54:34.835Z,40.17
2018-09-06T07:57:01.521Z,39.97
2018-09-06T07:59:28.917Z,40.19
2018-09-06T08:01:56.681Z,40.33
2018-09-06T08:04:22.394Z,39.82
2018-09-06T08:06:49.049Z,40.65
2018-09-06T08:09:15.685Z,40.37
2018-09-06T08:11:42.368Z,40.46
2018-09-06T08:14:09.026Z,40.27
2018-09-06T08:16:35.686Z,40.33
2018-09-06T08:19:02.340Z,40.31
2018-09-06T08:21:28.963Z,40.18
2018-09-06T08:23:55.601Z,40.12
2018-09-06T08:26:25.517Z,40.06
2018-09-06T08:28:53.219Z,39.97
2018-09-06T08:31:18.946Z,39.86
2018-09-06T08:33:45.588Z,40.58
2018-09-06T08:36:12.236Z,40.43
2018-09-06T08:38:38.983Z,40.27
2018-09-06T08:41:05.670Z,40.13
2018-09-06T08:43:32.312Z,39.85
2018-09-06T08:45:58.949Z,39.83
2018-09-06T08:48:25.691Z,39.92
2018-09-06T08:50:52.426Z,40.41
2018-09-06T08:53:19.167Z,40.08
2018-09-06T08:55:45.813Z,39.99
2018-09-06T08:58:12.449Z,39.71
2018-09-06T09:00:39.101Z,39.62
2018-09-06T09:03:05.866Z,39.57
2018-09-06T09:05:32.407Z,39.55
2018-09-06T09:07:59.054Z,39.52
2018-09-06T09:10:25.782Z,40.03
2018-09-06T09:12:52.431Z,39.70
2018-09-06T09:15:19.219Z,39.74
2018-09-06T09:17:45.870Z,39.57
2018-09-06T09:20:12.471Z,39.45
2018-09-06T09:22:39.108Z,39.30
2018-09-06T09:25:05.798Z,39.36
2018-09-06T09:27:32.580Z,39.98
2018-09-06T09:29:59.202Z,40.21
2018-09-06T09:32:25.919Z,39.60
2018-09-06T09:34:52.587Z,39.44
2018-09-06T09:37:19.205Z,39.39
2018-09-06T09:39:45.930Z,39.17
2018-09-06T09:42:14.904Z,39.06
2018-09-06T09:44:39.361Z,39.14
2018-09-06T09:49:31.863Z,38.77
2018-09-06T09:51:58.451Z,38.60
2018-09-06T09:54:25.095Z,40.03
2018-09-06T09:56:52.322Z,39.71
2018-09-06T09:59:18.905Z,39.31
2018-09-06T10:01:45.537Z,39.03
2018-09-06T10:04:12.207Z,39.02
2018-09-06T10:06:43.675Z,38.84
2018-09-06T10:09:05.616Z,38.69
2018-09-06T10:11:35.389Z,38.82
2018-09-06T10:14:02.101Z,38.83
2018-09-06T10:16:28.738Z,38.58
2018-09-06T10:18:55.373Z,38.41
2018-09-06T10:21:22.086Z,37.93
2018-09-06T10:23:48.716Z,38.29
2018-09-06T10:26:17.262Z,39.26
2018-09-06T10:28:43.956Z,39.18
2018-09-06T10:31:09.266Z,38.72
2018-09-06T10:33:35.999Z,38.67
2018-09-06T10:36:03.661Z,38.55
2018-09-06T10:38:29.300Z,38.68
2018-09-06T10:40:55.920Z,38.42
2018-09-06T10:43:22.605Z,38.19
2018-09-06T10:45:49.249Z,37.93
2018-09-06T10:48:15.972Z,38.10
2018-09-06T10:50:42.719Z,39.57
2018-09-06T10:53:09.357Z,38.92
2018-09-06T10:55:38.147Z,38.38
2018-09-06T10:58:02.633Z,38.27
2018-09-06T11:00:29.268Z,38.06
2018-09-06T11:02:55.918Z,38.17
2018-09-06T11:05:22.552Z,37.87
2018-09-06T11:07:49.325Z,37.64
2018-09-06T11:10:15.923Z,38.16
2018-09-06T11:12:42.657Z,39.01
2018-09-06T11:15:12.305Z,38.38
2018-09-06T11:17:38.956Z,38.02
2018-09-06T11:20:09.040Z,37.90
2018-09-06T11:22:36.100Z,37.81
2018-09-06T11:25:02.396Z,37.74
2018-09-06T11:27:29.103Z,38.42
2018-09-06T11:29:55.731Z,38.33
2018-09-06T11:32:22.370Z,37.97
2018-09-06T11:34:49.048Z,37.74
2018-09-06T11:37:15.650Z,37.65
2018-09-06T11:39:42.306Z,37.62
2018-09-06T11:42:08.937Z,37.72
2018-09-06T11:44:35.576Z,38.80
2018-09-06T11:47:02.257Z,38.11
2018-09-06T11:49:30.474Z,37.89
2018-09-06T11:51:58.585Z,37.74
2018-09-06T11:54:25.229Z,37.63
2018-09-06T11:56:52.012Z,37.82
2018-09-06T11:59:18.661Z,37.74
2018-09-06T12:01:45.447Z,37.56
2018-09-06T12:04:12.149Z,37.38
2018-09-06T12:06:39.355Z,37.30
2018-09-06T12:09:06.001Z,38.46
2018-09-06T12:11:32.645Z,38.57
2018-09-06T12:13:59.368Z,37.95
2018-09-06T12:16:26.022Z,37.71
2018-09-06T12:18:52.652Z,37.41
2018-09-06T12:21:19.428Z,37.41
2018-09-06T12:23:46.099Z,37.49
2018-09-06T12:26:12.781Z,37.61
2018-09-06T12:28:39.429Z,37.48
2018-09-06T12:31:06.093Z,37.45
2018-09-06T12:33:32.957Z,37.31
2018-09-06T12:35:59.467Z,37.27
2018-09-06T12:38:26.149Z,37.18
2018-09-06T12:40:52.786Z,37.34
2018-09-06T12:43:19.450Z,37.33
2018-09-06T12:45:46.152Z,37.26
2018-09-06T12:48:12.790Z,37.28
2018-09-06T12:50:39.426Z,37.49
2018-09-06T12:53:06.215Z,37.54
2018-09-06T12:55:32.982Z,37.41
2018-09-06T12:57:59.597Z,37.61
2018-09-06T13:00:26.277Z,37.56
2018-09-06T13:02:52.914Z,37.71
2018-09-06T13:05:19.664Z,37.75
2018-09-06T13:07:46.281Z,37.64
2018-09-06T13:10:13.143Z,37.80
2018-09-06T13:12:39.777Z,37.74
2018-09-06T13:15:06.449Z,37.84
2018-09-06T13:17:33.236Z,37.84
2018-09-06T13:19:59.919Z,37.94
2018-09-06T13:22:26.581Z,37.87
2018-09-06T13:24:53.242Z,37.91
2018-09-06T13:27:21.288Z,38.23
2018-09-06T13:29:46.547Z,38.15
2018-09-06T13:32:13.220Z,38.12
2018-09-06T13:34:39.897Z,38.05
2018-09-06T13:37:06.553Z,38.29
2018-09-06T13:42:04.013Z,38.05
2018-09-06T13:44:29.481Z,38.28
2018-09-06T13:47:01.375Z,38.42
2018-09-06T13:49:28.048Z,38.37
2018-09-06T13:51:56.107Z,38.52
2018-09-06T13:54:21.482Z,38.70
2018-09-06T13:56:48.131Z,38.83
2018-09-06T13:59:14.795Z,38.95
2018-09-06T14:01:45.823Z,39.07
2018-09-06T14:04:11.433Z,39.05
2018-09-06T14:06:40.754Z,39.05
2018-09-06T14:09:05.096Z,39.40
2018-09-06T14:11:33.238Z,39.52
2018-09-06T14:13:58.439Z,39.61
2018-09-06T14:16:25.145Z,39.72
2018-09-06T14:18:51.768Z,39.78
2018-09-06T14:21:18.437Z,39.80
2018-09-06T14:23:49.282Z,39.64
2018-09-06T14:26:14.897Z,39.52
2018-09-06T14:28:41.540Z,39.69
2018-09-06T14:31:08.220Z,39.63
2018-09-06T14:33:34.865Z,39.52
2018-09-06T14:36:01.527Z,39.44
2018-09-06T14:38:28.217Z,39.33
2018-09-06T14:40:54.853Z,39.23
2018-09-06T14:43:21.564Z,39.36
2018-09-06T14:45:48.247Z,39.39
2018-09-06T14:48:15.018Z,39.44
2018-09-06T14:50:41.691Z,39.27
2018-09-06T14:53:08.293Z,39.24
2018-09-06T14:55:34.984Z,39.29
2018-09-06T14:58:01.612Z,39.31
2018-09-06T15:00:39.011Z,39.53
2018-09-06T15:03:08.635Z,39.35
2018-09-06T15:05:39.950Z,39.57
2018-09-06T15:08:06.670Z,39.47
2018-09-06T15:10:36.403Z,39.71
2018-09-06T15:13:04.348Z,39.63
2018-09-06T15:15:29.635Z,39.61
2018-09-06T15:18:12.014Z,39.58
2018-09-06T15:20:23.012Z,39.58
2018-09-06T15:22:49.751Z,39.63
2018-09-06T15:25:16.389Z,39.83
2018-09-06T15:27:43.124Z,39.98
2018-09-06T15:30:09.706Z,39.99
2018-09-06T15:32:36.343Z,39.85
2018-09-06T15:35:02.975Z,39.93
2018-09-06T15:37:29.666Z,40.01
2018-09-06T15:39:57.713Z,39.98
2018-09-06T15:42:23.173Z,40.01
2018-09-06T15:44:49.870Z,40.05
2018-09-06T15:47:26.665Z,40.19
2018-09-06T15:49:46.638Z,40.36
2018-09-06T15:52:18.418Z,40.36
2018-09-06T15:54:45.187Z,40.31
2018-09-06T15:57:11.898Z,40.37
2018-09-06T15:59:38.590Z,40.37
2018-09-06T16:02:05.277Z,40.23
2018-09-06T16:04:32.262Z,40.39
2018-09-06T16:07:00.201Z,40.66
2018-09-06T16:09:25.542Z,40.48
2018-09-06T16:11:52.274Z,40.78
2018-09-06T16:14:18.909Z,40.71
2018-09-06T16:16:46.919Z,40.65
2018-09-06T16:19:12.315Z,40.76
2018-09-06T16:21:39.056Z,40.91
2018-09-06T16:24:05.836Z,41.11
2018-09-06T16:26:32.480Z,40.84
2018-09-06T16:28:59.210Z,41.02
2018-09-06T16:31:25.867Z,41.12
2018-09-06T16:33:53.908Z,41.10
2018-09-06T16:36:20.182Z,41.14
2018-09-06T16:38:45.936Z,41.22
2018-09-06T16:41:12.578Z,41.44
2018-09-06T16:43:39.237Z,41.41
2018-09-06T16:46:15.823Z,41.67
2018-09-06T16:48:40.965Z,41.63
2018-09-06T16:53:53.402Z,41.93
2018-09-06T16:56:20.142Z,41.87
2018-09-06T16:58:46.828Z,41.81
2018-09-06T17:01:19.954Z,41.85
2018-09-06T17:03:44.960Z,41.94
2018-09-06T17:06:14.815Z,41.98
2018-09-06T17:08:41.456Z,42.25
2018-09-06T17:11:13.297Z,41.96
2018-09-06T17:13:37.939Z,42.17
2018-09-06T17:16:04.546Z,42.13
2018-09-06T17:18:31.249Z,42.35
2018-09-06T17:20:58.585Z,42.23
2018-09-06T17:23:25.327Z,42.24
2018-09-06T17:25:51.965Z,42.21
2018-09-06T17:28:20.145Z,42.30
2018-09-06T17:30:51.176Z,42.20
2018-09-06T17:33:18.232Z,42.31
2018-09-06T17:35:44.833Z,42.42
2018-09-06T17:38:11.484Z,42.31
2018-09-06T17:40:38.172Z,42.25
2018-09-06T17:43:04.817Z,42.35
2018-09-06T17:45:34.149Z,42.43
2018-09-06T17:48:00.785Z,42.29
2018-09-06T17:50:27.490Z,42.36
2018-09-06T17:52:54.130Z,42.39
2018-09-06T17:55:22.255Z,42.36
2018-09-06T17:57:47.466Z,42.35
2018-09-06T18:00:17.369Z,42.39
2018-09-06T18:02:44.063Z,42.41
2018-09-06T18:05:10.804Z,42.36
2018-09-06T18:07:43.838Z,42.35
2018-09-06T18:10:07.356Z,42.39
2018-09-06T18:12:34.048Z,42.45
2018-09-06T18:15:05.740Z,42.36
2018-09-06T18:17:27.367Z,42.43
2018-09-06T18:19:57.426Z,42.36
2018-09-06T18:22:24.127Z,42.43
2018-09-06T18:24:50.766Z,42.39
2018-09-06T18:27:21.051Z,42.44
2018-09-06T18:29:46.129Z,42.50
2018-09-06T18:32:13.955Z,42.48
2018-09-06T18:34:40.593Z,42.53
2018-09-06T18:37:07.273Z,42.56
2018-09-06T18:39:33.965Z,42.65
2018-09-06T18:42:00.644Z,42.64
2018-09-06T18:44:27.286Z,42.61
2018-09-06T18:46:56.037Z,42.71
2018-09-06T18:49:20.609Z,42.65
2018-09-06T18:51:47.293Z,42.69
2018-09-06T18:54:13.926Z,42.69
2018-09-06T18:56:40.636Z,42.73
2018-09-06T18:59:07.321Z,42.73
2018-09-06T19:01:34.008Z,42.78
2018-09-06T19:04:04.057Z,42.81
2018-09-06T19:06:30.747Z,42.78
2018-09-06T19:08:57.426Z,42.83
2018-09-06T19:11:24.067Z,42.83
2018-09-06T19:13:50.751Z,42.89
2018-09-06T19:16:17.391Z,42.84
2018-09-06T19:18:44.128Z,42.86
2018-09-06T19:21:10.802Z,42.81
2018-09-06T19:23:37.470Z,42.89
2018-09-06T19:26:05.976Z,42.88
2018-09-06T19:28:30.790Z,43.04
2018-09-06T19:30:58.619Z,43.07
2018-09-06T19:33:25.543Z,42.93
2018-09-06T19:35:52.677Z,42.99
2018-09-06T19:38:22.352Z,43.01
2018-09-06T19:40:48.985Z,43.07
2018-09-06T19:43:16.960Z,43.14
2018-09-06T19:45:42.340Z,43.08
2018-09-06T19:48:09.002Z,43.13
2018-09-06T19:50:35.638Z,43.12
2018-09-06T19:53:02.318Z,43.22
2018-09-06T19:55:28.953Z,43.25
2018-09-06T19:57:56.786Z,43.28
2018-09-06T20:00:23.629Z,43.26
2018-09-06T20:02:48.938Z,43.26
2018-09-06T20:05:17.737Z,43.32
2018-09-06T20:07:42.276Z,43.24
2018-09-06T20:10:08.917Z,43.21
2018-09-06T20:12:35.657Z,43.28
2018-09-06T20:15:02.300Z,43.19
2018-09-06T20:17:28.973Z,43.29
2018-09-06T20:19:56.685Z,43.16
2018-09-06T20:22:23.337Z,43.24
2018-09-06T20:24:50.051Z,43.25
2018-09-06T20:27:19.942Z,43.20
2018-09-06T20:29:48.633Z,43.14
2018-09-06T20:32:15.323Z,43.19
2018-09-06T20:34:51.601Z,43.16
2018-09-06T20:37:19.513Z,43.13
2018-09-06T20:39:46.148Z,43.17
2018-09-06T20:42:12.792Z,43.16
2018-09-06T20:44:39.427Z,43.08
2018-09-06T20:47:06.077Z,43.20
2018-09-06T20:49:32.833Z,43.03
2018-09-06T20:51:59.485Z,43.06
2018-09-06T20:54:26.121Z,43.03
2018-09-06T20:56:52.771Z,42.97
2018-09-06T20:59:20.696Z,43.02
2018-09-06T21:01:57.511Z,42.96
2018-09-06T21:04:12.697Z,42.94
2018-09-06T21:06:42.698Z,42.87
2018-09-06T21:09:07.812Z,42.80
2018-09-06T21:11:34.449Z,42.78
2018-09-06T21:14:01.087Z,42.86
2018-09-06T21:16:27.817Z,42.71
2018-09-06T21:18:54.418Z,42.81
2018-09-06T21:21:21.035Z,42.90
2018-09-06T21:23:47.680Z,42.76
2018-09-06T21:26:14.399Z,42.72
2018-09-06T21:28:41.046Z,42.71
2018-09-06T21:31:07.694Z,42.69
2018-09-06T21:33:34.341Z,42.69
2018-09-06T21:36:00.972Z,42.54
2018-09-06T21:38:32.637Z,42.51
2018-09-06T21:40:59.343Z,42.58
2018-09-06T21:43:26.020Z,42.56
2018-09-06T21:45:52.633Z,42.64
2018-09-06T21:48:19.276Z,42.50
2018-09-06T21:50:55.477Z,42.43
2018-09-06T21:53:17.595Z,42.43
2018-09-06T21:55:44.245Z,42.38
2018-09-06T21:58:17.504Z,42.43
2018-09-06T22:00:37.563Z,42.46
2018-09-06T22:03:04.183Z,42.39
2018-09-06T22:05:46.453Z,42.36
2018-09-06T22:07:57.493Z,42.41
2018-09-06T22:10:28.910Z,42.44
2018-09-06T22:12:50.855Z,42.44
2018-09-06T22:15:19.171Z,42.33
2018-09-06T22:17:44.142Z,42.34
2018-09-06T22:20:10.793Z,42.36
2018-09-06T22:22:37.438Z,42.28
2018-09-06T22:25:04.084Z,42.32
2018-09-06T22:27:34.689Z,42.25
2018-09-06T22:30:06.351Z,42.24
2018-09-06T22:32:34.992Z,42.30
2018-09-06T22:35:17.054Z,42.28
2018-09-06T22:37:43.702Z,42.27
2018-09-06T22:40:10.393Z,42.28
2018-09-06T22:42:37.033Z,42.25
2018-09-06T22:45:03.762Z,42.28
2018-09-06T22:47:35.069Z,42.28
2018-09-06T22:50:04.867Z,42.30
2018-09-06T22:52:31.515Z,42.19
2018-09-06T22:54:58.472Z,42.28
2018-09-06T22:57:25.092Z,42.27
2018-09-06T22:59:51.742Z,42.26
2018-09-06T23:02:21.095Z,42.19
2018-09-06T23:05:22.800Z,42.19
2018-09-06T23:07:21.237Z,42.36
2018-09-06T23:09:43.229Z,42.29
2018-09-06T23:12:12.744Z,42.15
2018-09-06T23:14:34.808Z,42.24
2018-09-06T23:17:01.490Z,42.20
2018-09-06T23:19:36.051Z,42.15
2018-09-06T23:21:57.784Z,42.13
2018-09-06T23:24:24.444Z,42.17
2018-09-06T23:26:54.116Z,42.19
2018-09-06T23:29:26.970Z,42.12
2018-09-06T23:31:58.308Z,42.13
2018-09-06T23:34:20.355Z,42.18
2018-09-06T23:36:56.193Z,42.20
2018-09-06T23:39:26.858Z,42.15
2018-09-06T23:42:12.448Z,42.18
2018-09-06T23:44:35.616Z,42.20
2018-09-06T23:47:04.534Z,42.12
2018-09-06T23:49:32.953Z,42.03
2018-09-06T23:54:45.559Z,42.19
2018-09-06T23:57:14.853Z,42.20
